Time;durP1;ratioP1;P1;durP2;ratioP2;P2;SDS_P1;SDS_P2;PMS_P1;PMS_P2;Temp;Humidity;BMP_temperature;BMP_pressure;BME280_temperature;BME280_humidity;BME280_pressure;Samples;Min_cycle;Max_cycle;Signal;HPM_P1;HPM_P2
2021/01/19 00:01:05;;;;;;;;;;;;;;;20.89;27.76;101595.47;5020986;28;1323;-47
2021/01/19 00:03:30;;;;;;;;;;;;;;;20.32;28.63;101599.19;5038661;28;812;-48
2021/01/19 00:05:55;;;;;;;;;;;;;;;20.11;29.04;101592.88;5039036;28;1914;-50
2021/01/19 00:08:21;;;;;;;;;;;;;;;19.69;29.80;101585.69;5038206;28;943;-48
2021/01/19 00:10:47;;;;;;;;;;;;;;;20.29;28.56;101576.84;5038449;28;804;-51
2021/01/19 00:13:19;;;;;;;;;;;;;;;20.86;27.77;101583.06;5038591;28;852;-51
2021/01/19 00:15:45;;;;;;;;;;;;;;;20.39;28.34;101587.88;5038507;28;787;-48
2021/01/19 00:18:11;;;;;;;;;;;;;;;20.09;28.93;101584.06;5049178;28;1179;-49
2021/01/19 00:20:36;;;;;;;;;;;;;;;19.80;29.53;101583.81;5058715;28;803;-50
2021/01/19 00:23:02;;;;;;;;;;;;;;;19.82;29.49;101590.69;5046522;28;1184;-49
2021/01/19 00:25:27;;;;;;;;;;;;;;;20.56;28.51;101593.06;5038014;28;1905;-50
2021/01/19 00:27:52;;;;;;;;;;;;;;;20.73;27.79;101595.53;5038169;28;752;-52
2021/01/19 00:30:18;;;;;;;;;;;;;;;20.06;29.05;101589.28;5020490;28;782;-49
2021/01/19 00:32:43;;;;;;;;;;;;;;;20.03;29.06;101593.44;5038101;28;681;-49
2021/01/19 00:35:09;;;;;;;;;;;;;;;19.39;30.10;101592.84;5038137;28;755;-50
2021/01/19 00:37:34;;;;;;;;;;;;;;;20.23;28.69;101595.38;5037800;28;940;-48
2021/01/19 00:40:00;;;;;;;;;;;;;;;20.85;27.58;101596.03;5037917;28;840;-48
2021/01/19 00:42:25;;;;;;;;;;;;;;;20.37;28.44;101590.09;5037888;28;812;-50
2021/01/19 00:44:51;;;;;;;;;;;;;;;20.20;28.95;101600.59;5038010;28;1905;-49
2021/01/19 00:47:16;;;;;;;;;;;;;;;19.60;29.56;101593.69;5020036;28;760;-50
2021/01/19 00:49:42;;;;;;;;;;;;;;;19.73;29.66;101591.50;5020264;28;1151;-52
2021/01/19 00:52:07;;;;;;;;;;;;;;;20.52;28.21;101586.44;5019948;28;1397;-50
2021/01/19 00:54:33;;;;;;;;;;;;;;;21.04;27.41;101584.31;5037636;28;795;-50
2021/01/19 00:56:59;;;;;;;;;;;;;;;20.30;28.41;101592.28;5035595;28;1347;-48
2021/01/19 00:59:24;;;;;;;;;;;;;;;20.11;28.87;101587.34;5020080;28;1163;-50
2021/01/19 01:01:50;;;;;;;;;;;;;;;19.51;29.99;101586.22;5037905;28;835;-50
2021/01/19 01:04:15;;;;;;;;;;;;;;;19.80;29.66;101592.91;5038273;28;1973;-48
2021/01/19 01:06:41;;;;;;;;;;;;;;;20.61;28.22;101595.81;5037407;28;951;-48
2021/01/19 01:09:07;;;;;;;;;;;;;;;20.51;28.33;101601.38;5037825;28;812;-48
2021/01/19 01:11:36;;;;;;;;;;;;;;;19.95;29.23;101597.59;5037047;28;732;-49
2021/01/19 01:14:02;;;;;;;;;;;;;;;19.55;29.89;101601.13;5037562;28;744;-46
2021/01/19 01:16:27;;;;;;;;;;;;;;;19.88;29.47;101605.31;5037459;28;820;-47
2021/01/19 01:18:53;;;;;;;;;;;;;;;20.52;28.32;101603.88;5053642;28;1175;-52
2021/01/19 01:21:18;;;;;;;;;;;;;;;20.95;27.53;101605.41;5057538;28;834;-47
2021/01/19 01:23:44;;;;;;;;;;;;;;;20.27;28.47;101610.28;5039770;28;974;-47
2021/01/19 01:26:09;;;;;;;;;;;;;;;20.17;28.89;101605.59;5037077;28;1983;-54
2021/01/19 01:28:34;;;;;;;;;;;;;;;19.50;29.90;101604.69;5037120;28;804;-49
2021/01/19 01:31:00;;;;;;;;;;;;;;;20.31;28.70;101616.06;5037285;28;759;-47
2021/01/19 01:33:25;;;;;;;;;;;;;;;20.87;27.81;101620.63;5037027;28;768;-48
2021/01/19 01:35:51;;;;;;;;;;;;;;;20.25;28.40;101606.94;5037120;28;796;-47
2021/01/19 01:38:16;;;;;;;;;;;;;;;20.04;28.82;101608.09;5036600;28;1002;-48
2021/01/19 01:40:42;;;;;;;;;;;;;;;19.58;29.76;101617.13;5036864;28;768;-47
2021/01/19 01:43:10;;;;;;;;;;;;;;;19.74;29.44;101616.06;5037064;28;807;-50
2021/01/19 01:45:36;;;;;;;;;;;;;;;20.56;28.09;101619.88;5035834;28;1910;-49
2021/01/19 01:48:01;;;;;;;;;;;;;;;20.69;28.13;101622.06;5036385;28;789;-52
2021/01/19 01:50:27;;;;;;;;;;;;;;;20.09;28.92;101613.59;5036880;28;744;-47
2021/01/19 01:52:52;;;;;;;;;;;;;;;19.87;29.19;101613.88;5036428;28;986;-49
2021/01/19 01:55:18;;;;;;;;;;;;;;;19.42;29.82;101613.50;5036407;28;855;-49
2021/01/19 01:57:43;;;;;;;;;;;;;;;20.29;28.58;101610.00;5018907;28;989;-51
2021/01/19 02:00:09;;;;;;;;;;;;;;;20.85;27.62;101615.38;5036604;28;795;-50
2021/01/19 02:02:35;;;;;;;;;;;;;;;21.00;27.34;101610.91;5018874;28;1103;-50
2021/01/19 02:05:01;;;;;;;;;;;;;;;20.14;28.60;101613.59;5036557;28;1967;-48
2021/01/19 02:07:44;;;;;;;;;;;;;;;19.91;29.22;101614.97;5036224;28;1006;-60
2021/01/19 02:10:15;;;;;;;;;;;;;;;19.91;29.20;101621.34;5036009;28;748;-48
2021/01/19 02:12:57;;;;;;;;;;;;;;;20.68;27.82;101614.91;5018968;28;768;-52
2021/01/19 02:15:27;;;;;;;;;;;;;;;21.12;27.09;101616.91;5036634;28;808;-51
2021/01/19 02:18:05;;;;;;;;;;;;;;;20.64;27.75;101613.78;5027120;28;1113;-49
2021/01/19 02:20:36;;;;;;;;;;;;;;;20.21;28.71;101610.56;5056125;28;748;-49
2021/01/19 02:23:11;;;;;;;;;;;;;;;19.60;29.74;101609.41;5044889;28;1129;-47
2021/01/19 02:25:55;;;;;;;;;;;;;;;19.47;29.66;101614.38;5018490;28;1906;-46
2021/01/19 02:28:23;;;;;;;;;;;;;;;20.51;28.38;101612.44;5035991;28;945;-47
2021/01/19 02:31:12;;;;;;;;;;;;;;;20.22;28.44;101612.22;5035997;28;804;-49
2021/01/19 02:33:47;;;;;;;;;;;;;;;19.99;28.87;101609.75;5008168;28;1151;-50
2021/01/19 02:36:29;;;;;;;;;;;;;;;19.48;29.71;101602.22;5036105;28;827;-50
2021/01/19 02:38:59;;;;;;;;;;;;;;;20.05;29.08;101601.44;5018328;28;955;-53
2021/01/19 02:41:25;;;;;;;;;;;;;;;20.72;27.72;101596.66;5036048;28;759;-48
2021/01/19 02:43:59;;;;;;;;;;;;;;;20.68;27.80;101598.31;5018446;28;952;-50
2021/01/19 02:46:25;;;;;;;;;;;;;;;20.09;28.93;101600.63;5036158;28;760;-48
2021/01/19 02:48:51;;;;;;;;;;;;;;;19.85;29.39;101600.34;5018477;28;747;-48
2021/01/19 02:51:16;;;;;;;;;;;;;;;19.90;29.11;101597.59;5036135;28;815;-47
2021/01/19 02:53:42;;;;;;;;;;;;;;;20.64;27.90;101598.00;5035723;28;948;-49
2021/01/19 02:56:08;;;;;;;;;;;;;;;20.79;27.62;101597.19;5036156;28;803;-48
2021/01/19 02:58:52;;;;;;;;;;;;;;;20.13;28.72;101601.72;5018448;28;799;-49
2021/01/19 03:01:18;;;;;;;;;;;;;;;19.86;29.41;101595.66;5035751;28;829;-48
2021/01/19 03:03:44;;;;;;;;;;;;;;;19.83;29.47;101602.56;5035833;28;791;-47
2021/01/19 03:06:10;;;;;;;;;;;;;;;20.56;28.18;101608.81;5018171;28;1914;-49
2021/01/19 03:08:36;;;;;;;;;;;;;;;20.97;27.33;101603.16;5035274;28;994;-47
2021/01/19 03:11:02;;;;;;;;;;;;;;;20.39;28.30;101601.69;5018066;28;757;-49
2021/01/19 03:13:27;;;;;;;;;;;;;;;20.13;28.70;101596.22;5035934;28;791;-49
2021/01/19 03:16:12;;;;;;;;;;;;;;;19.46;29.81;101598.91;5018052;28;824;-48
2021/01/19 03:18:38;;;;;;;;;;;;;;;20.38;28.30;101591.72;5050255;28;1239;-48
2021/01/19 03:21:06;;;;;;;;;;;;;;;21.04;27.55;101592.63;5057121;28;736;-49
2021/01/19 03:23:32;;;;;;;;;;;;;;;20.46;28.13;101590.34;5043409;28;1092;-49
2021/01/19 03:25:58;;;;;;;;;;;;;;;20.07;28.84;101586.25;5039431;28;1985;-48
2021/01/19 03:28:23;;;;;;;;;;;;;;;19.39;29.90;101581.81;5039404;28;744;-50
2021/01/19 03:30:49;;;;;;;;;;;;;;;19.80;29.30;101579.09;5039008;28;804;-50
2021/01/19 03:33:14;;;;;;;;;;;;;;;20.69;27.79;101575.09;5039557;28;775;-49
2021/01/19 03:35:39;;;;;;;;;;;;;;;20.96;27.25;101563.66;5039369;28;780;-50
2021/01/19 03:38:05;;;;;;;;;;;;;;;20.24;28.46;101571.31;5038697;28;1015;-51
2021/01/19 03:40:31;;;;;;;;;;;;;;;20.03;28.95;101568.59;5039871;28;815;-48
2021/01/19 03:42:56;;;;;;;;;;;;;;;19.52;29.77;101563.88;5039260;28;820;-54
2021/01/19 03:45:22;;;;;;;;;;;;;;;20.47;28.12;101567.97;5038938;28;1967;-49
2021/01/19 03:47:47;;;;;;;;;;;;;;;21.02;27.29;101568.03;5039098;28;803;-49
2021/01/19 03:50:13;;;;;;;;;;;;;;;20.42;28.16;101570.72;5039174;28;804;-49
2021/01/19 03:52:38;;;;;;;;;;;;;;;20.08;28.62;101574.13;5038348;28;1010;-49
2021/01/19 03:55:04;;;;;;;;;;;;;;;19.49;29.72;101573.53;5039322;28;749;-50
2021/01/19 03:57:29;;;;;;;;;;;;;;;20.07;29.04;101580.72;5039439;28;793;-51
2021/01/19 03:59:55;;;;;;;;;;;;;;;20.66;27.80;101581.16;5038696;28;749;-50
2021/01/19 04:02:20;;;;;;;;;;;;;;;20.48;27.88;101580.66;5038921;28;836;-55
2021/01/19 04:04:47;;;;;;;;;;;;;;;20.02;28.90;101572.47;5039035;28;1914;-60
2021/01/19 04:07:12;;;;;;;;;;;;;;;19.64;29.46;101578.25;5038022;28;998;-61
2021/01/19 04:09:37;;;;;;;;;;;;;;;19.92;29.03;101578.00;5038791;28;752;-52
2021/01/19 04:12:03;;;;;;;;;;;;;;;20.59;28.08;101580.63;5038573;28;788;-48
2021/01/19 04:14:28;;;;;;;;;;;;;;;20.75;27.65;101581.41;5038636;28;748;-51
2021/01/19 04:16:54;;;;;;;;;;;;;;;20.03;28.73;101587.09;5038450;28;1100;-48
2021/01/19 04:19:19;;;;;;;;;;;;;;;19.81;29.20;101583.53;5058407;28;815;-50
2021/01/19 04:21:45;;;;;;;;;;;;;;;19.54;29.62;101582.91;5057533;28;987;-50
2021/01/19 04:24:10;;;;;;;;;;;;;;;20.44;28.01;101579.56;5038305;28;1913;-53
2021/01/19 04:26:35;;;;;;;;;;;;;;;20.94;27.34;101576.91;5038347;28;767;-56
2021/01/19 04:29:01;;;;;;;;;;;;;;;20.16;28.43;101584.59;5038618;28;751;-47
2021/01/19 04:31:26;;;;;;;;;;;;;;;20.04;28.63;101584.06;5038199;28;846;-55
2021/01/19 04:33:52;;;;;;;;;;;;;;;19.39;29.87;101576.28;5038084;28;859;-48
2021/01/19 04:36:17;;;;;;;;;;;;;;;19.86;29.22;101579.09;5038474;28;890;-49
2021/01/19 04:38:43;;;;;;;;;;;;;;;20.67;27.88;101583.66;5037864;28;1022;-57
2021/01/19 04:41:08;;;;;;;;;;;;;;;20.35;28.11;101589.53;5038008;28;792;-52
2021/01/19 04:43:34;;;;;;;;;;;;;;;20.15;28.36;101591.22;5020835;28;831;-54
2021/01/19 04:46:00;;;;;;;;;;;;;;;19.73;29.24;101588.75;5037593;28;1975;-51
2021/01/19 04:48:25;;;;;;;;;;;;;;;20.04;28.94;101594.28;5038188;28;891;-48
2021/01/19 04:50:50;;;;;;;;;;;;;;;20.64;27.90;101591.69;5037775;28;788;-55
2021/01/19 04:53:16;;;;;;;;;;;;;;;20.97;27.15;101575.53;5037628;28;1050;-50
2021/01/19 04:55:53;;;;;;;;;;;;;;;20.27;28.20;101590.09;5020678;28;1485;-48
2021/01/19 04:58:20;;;;;;;;;;;;;;;20.03;28.56;101596.19;5057938;28;759;-59
2021/01/19 05:00:50;;;;;;;;;;;;;;;19.51;29.79;101591.75;5057604;28;771;-47
2021/01/19 05:03:20;;;;;;;;;;;;;;;20.39;28.11;101607.19;5073170;28;863;-58
2021/01/19 05:06:12;;;;;;;;;;;;;;;21.01;27.14;101601.50;5058183;28;1967;-57
2021/01/19 05:08:37;;;;;;;;;;;;;;;20.25;28.10;101598.66;5037037;28;1351;-55
2021/01/19 05:11:02;;;;;;;;;;;;;;;19.89;28.93;101598.69;5037611;28;791;-59
2021/01/19 05:13:28;;;;;;;;;;;;;;;19.87;29.08;101603.66;5037308;28;737;-48
2021/01/19 05:15:53;;;;;;;;;;;;;;;20.52;27.92;101606.63;5038256;28;807;-54
2021/01/19 05:18:19;;;;;;;;;;;;;;;20.98;27.27;101605.66;5039503;28;1210;-50
2021/01/19 05:20:48;;;;;;;;;;;;;;;20.22;28.41;101606.69;5057399;28;843;-53
2021/01/19 05:23:21;;;;;;;;;;;;;;;19.93;28.93;101618.28;5038871;28;1078;-50
2021/01/19 05:26:05;;;;;;;;;;;;;;;19.37;29.64;101616.25;5057195;28;1981;-48
2021/01/19 05:28:38;;;;;;;;;;;;;;;19.98;28.90;101612.78;5056733;28;840;-50
2021/01/19 05:31:04;;;;;;;;;;;;;;;20.63;27.83;101620.41;5057059;28;736;-49
2021/01/19 05:33:30;;;;;;;;;;;;;;;20.50;27.80;101619.88;5057186;28;815;-55
2021/01/19 05:36:03;;;;;;;;;;;;;;;20.00;28.57;101624.38;5056590;28;820;-48
2021/01/19 05:38:29;;;;;;;;;;;;;;;19.64;29.06;101618.78;5041565;28;955;-50
2021/01/19 05:40:54;;;;;;;;;;;;;;;19.44;29.57;101627.88;5037040;28;816;-50
2021/01/19 05:43:19;;;;;;;;;;;;;;;20.37;28.15;101628.75;5036023;28;760;-55
2021/01/19 05:45:51;;;;;;;;;;;;;;;20.97;27.19;101631.66;5036847;28;1979;-51
2021/01/19 05:48:16;;;;;;;;;;;;;;;20.46;27.80;101637.31;5036836;28;763;-54
2021/01/19 05:50:42;;;;;;;;;;;;;;;20.24;28.04;101634.84;5036427;28;811;-59
2021/01/19 05:53:14;;;;;;;;;;;;;;;19.37;29.69;101647.41;5036474;28;979;-57
2021/01/19 05:55:40;;;;;;;;;;;;;;;20.21;28.36;101643.69;5036990;28;760;-54
2021/01/19 05:58:15;;;;;;;;;;;;;;;20.98;27.07;101651.84;5036245;28;822;-56
2021/01/19 06:00:41;;;;;;;;;;;;;;;20.60;27.50;101654.94;5036698;28;820;-57
2021/01/19 06:03:16;;;;;;;;;;;;;;;20.32;28.08;101648.09;5036549;28;856;-56
2021/01/19 06:05:41;;;;;;;;;;;;;;;19.66;29.40;101646.94;5036486;28;1957;-56
2021/01/19 06:08:08;;;;;;;;;;;;;;;20.18;28.49;101643.13;5039634;28;967;-54
2021/01/19 06:10:34;;;;;;;;;;;;;;;20.86;27.24;101646.63;5055939;28;876;-54
2021/01/19 06:12:59;;;;;;;;;;;;;;;21.02;27.06;101639.91;5037901;28;831;-57
2021/01/19 06:15:28;;;;;;;;;;;;;;;20.34;28.14;101643.97;5038676;28;883;-60
2021/01/19 06:17:53;;;;;;;;;;;;;;;19.97;28.88;101647.00;5056321;28;1123;-59
2021/01/19 06:20:19;;;;;;;;;;;;;;;19.29;29.94;101647.94;5055964;28;811;-57
2021/01/19 06:22:44;;;;;;;;;;;;;;;20.24;28.38;101652.22;5047141;28;963;-57
2021/01/19 06:25:13;;;;;;;;;;;;;;;20.93;27.14;101658.22;5015071;28;1914;-57
2021/01/19 06:27:39;;;;;;;;;;;;;;;20.43;27.82;101666.31;5016500;28;772;-54
2021/01/19 06:30:08;;;;;;;;;;;;;;;20.26;28.46;101661.09;5016592;28;795;-53
2021/01/19 06:32:37;;;;;;;;;;;;;;;19.49;29.47;101659.03;5016345;28;804;-55
2021/01/19 06:35:16;;;;;;;;;;;;;;;20.32;28.19;101659.16;5016535;28;801;-60
2021/01/19 06:37:42;;;;;;;;;;;;;;;21.02;27.04;101652.94;5015945;28;936;-58
2021/01/19 06:40:08;;;;;;;;;;;;;;;20.51;27.61;101667.69;5016432;28;785;-57
2021/01/19 06:42:34;;;;;;;;;;;;;;;20.16;28.44;101661.06;5016202;28;838;-55
2021/01/19 06:45:00;;;;;;;;;;;;;;;19.58;29.10;101661.28;5050960;28;1934;-57
2021/01/19 06:47:25;;;;;;;;;;;;;;;19.96;28.76;101657.22;5046927;28;1205;-61
2021/01/19 06:49:51;;;;;;;;;;;;;;;20.71;27.73;101658.56;5050517;28;1241;-62
2021/01/19 06:52:16;;;;;;;;;;;;;;;21.25;26.70;101659.75;5045790;28;974;-55
2021/01/19 06:54:54;;;;;;;;;;;;;;;20.48;27.63;101659.94;5016318;28;824;-57
2021/01/19 06:57:20;;;;;;;;;;;;;;;20.15;28.30;101653.91;5019309;28;784;-59
2021/01/19 06:59:50;;;;;;;;;;;;;;;19.60;29.22;101656.28;5020303;28;819;-56
2021/01/19 07:02:16;;;;;;;;;;;;;;;19.93;28.93;101652.22;5019057;28;776;-62
2021/01/19 07:04:46;;;;;;;;;;;;;;;20.73;27.61;101652.75;5019848;28;1979;-59
2021/01/19 07:07:26;;;;;;;;;;;;;;;21.26;26.98;101653.09;5019599;28;964;-59
2021/01/19 07:10:04;;;;;;;;;;;;;;;20.28;28.10;101658.03;5020190;28;768;-59
2021/01/19 07:12:39;;;;;;;;;;;;;;;20.24;28.20;101657.75;5019652;28;832;-59
2021/01/19 07:15:05;;;;;;;;;;;;;;;19.60;29.43;101659.06;5035660;28;813;-60
2021/01/19 07:17:42;;;;;;;;;;;;;;;20.50;27.98;101661.31;5025217;28;1211;-54
2021/01/19 07:20:10;;;;;;;;;;;;;;;21.11;26.91;101665.06;5039370;28;796;-58
2021/01/19 07:22:44;;;;;;;;;;;;;;;20.38;27.86;101666.31;5030560;28;995;-49
2021/01/19 07:25:09;;;;;;;;;;;;;;;20.17;28.29;101663.59;5037815;28;1980;-59
2021/01/19 07:27:35;;;;;;;;;;;;;;;19.49;29.47;101659.03;5038898;28;737;-50
2021/01/19 07:30:00;;;;;;;;;;;;;;;19.99;28.71;101672.38;5021924;28;753;-57
2021/01/19 07:32:26;;;;;;;;;;;;;;;20.68;27.62;101668.22;5021996;28;748;-64
2021/01/19 07:34:52;;;;;;;;;;;;;;;20.60;27.68;101667.94;5021586;28;765;-52
2021/01/19 07:37:27;;;;;;;;;;;;;;;20.26;28.23;101665.75;5026746;28;947;-54
2021/01/19 07:39:53;;;;;;;;;;;;;;;19.74;29.18;101671.25;5059554;28;777;-59
2021/01/19 07:42:18;;;;;;;;;;;;;;;20.05;28.56;101673.22;5058727;28;867;-56
2021/01/19 07:45:04;;;;;;;;;;;;;;;20.66;27.64;101678.72;5059170;28;1913;-48
2021/01/19 07:47:42;;;;;;;;;;;;;;;21.03;26.98;101673.94;5058647;28;1344;-60
2021/01/19 07:50:11;;;;;;;;;;;;;;;20.28;28.23;101674.63;5058718;28;824;-55
2021/01/19 07:52:38;;;;;;;;;;;;;;;19.87;28.69;101682.88;5051198;28;1017;-55
2021/01/19 07:55:13;;;;;;;;;;;;;;;19.78;28.92;101677.03;5021564;28;834;-54
2021/01/19 07:57:39;;;;;;;;;;;;;;;20.54;27.98;101682.88;5038817;28;764;-57
2021/01/19 08:00:04;;;;;;;;;;;;;;;20.89;27.07;101682.00;5021266;28;925;-49
2021/01/19 08:02:37;;;;;;;;;;;;;;;20.28;28.01;101680.13;5038892;28;688;-53
2021/01/19 08:05:05;;;;;;;;;;;;;;;20.02;28.62;101693.09;5038483;28;1918;-56
2021/01/19 08:07:39;;;;;;;;;;;;;;;19.63;29.27;101688.88;5037866;28;968;-49
2021/01/19 08:10:21;;;;;;;;;;;;;;;20.44;28.08;101692.00;5038655;28;807;-52
2021/01/19 08:12:48;;;;;;;;;;;;;;;21.05;26.96;101687.50;5038420;28;828;-52
2021/01/19 08:15:25;;;;;;;;;;;;;;;20.35;27.96;101697.25;5038734;28;831;-48
2021/01/19 08:17:51;;;;;;;;;;;;;;;20.01;28.57;101697.81;5046409;28;1163;-51
2021/01/19 08:20:42;;;;;;;;;;;;;;;19.83;29.02;101708.25;5058286;28;751;-51
2021/01/19 08:23:16;;;;;;;;;;;;;;;20.62;27.56;101713.53;5043807;28;1839;-65
2021/01/19 08:25:41;;;;;;;;;;;;;;;20.35;27.77;101702.78;5038306;28;1926;-50
2021/01/19 08:28:08;;;;;;;;;;;;;;;19.94;28.75;101711.06;5038056;28;796;-50
2021/01/19 08:30:33;;;;;;;;;;;;;;;19.68;28.91;101716.47;5038448;28;752;-52
2021/01/19 08:32:59;;;;;;;;;;;;;;;19.93;28.60;101717.66;5038137;28;832;-56
2021/01/19 08:35:40;;;;;;;;;;;;;;;20.59;27.43;101718.78;5038337;28;740;-56
2021/01/19 08:38:05;;;;;;;;;;;;;;;21.05;26.86;101717.91;5037568;28;939;-58
2021/01/19 08:40:35;;;;;;;;;;;;;;;21.42;26.24;101725.78;5038050;28;843;-65
2021/01/19 08:43:03;;;;;;;;;;;;;;;20.83;27.04;101727.34;5037981;28;740;-60
2021/01/19 08:45:32;;;;;;;;;;;;;;;20.37;28.11;101727.34;5038553;28;1914;-52
2021/01/19 08:47:58;;;;;;;;;;;;;;;19.88;28.73;101717.66;5037862;28;831;-60
2021/01/19 08:50:27;;;;;;;;;;;;;;;20.05;28.24;101712.72;5037860;28;848;-59
2021/01/19 08:52:52;;;;;;;;;;;;;;;20.77;27.27;101723.75;5037600;28;959;-58
2021/01/19 08:55:22;;;;;;;;;;;;;;;20.73;27.17;101711.59;5037849;28;815;-57
2021/01/19 08:57:50;;;;;;;;;;;;;;;20.16;28.16;101711.63;5037631;28;764;-60
2021/01/19 09:00:36;;;;;;;;;;;;;;;19.70;28.72;101714.28;5037977;28;783;-58
2021/01/19 09:03:14;;;;;;;;;;;;;;;19.96;28.72;101700.56;5037595;28;824;-63
2021/01/19 09:05:39;;;;;;;;;;;;;;;20.76;27.37;101694.47;5038007;28;1909;-54
2021/01/19 09:08:15;;;;;;;;;;;;;;;20.75;27.09;101691.97;5037361;28;1010;-58
2021/01/19 09:10:40;;;;;;;;;;;;;;;20.21;28.03;101687.88;5037681;28;845;-50
2021/01/19 09:13:06;;;;;;;;;;;;;;;19.83;28.69;101686.16;5037459;28;748;-51
2021/01/19 09:15:38;;;;;;;;;;;;;;;19.80;28.89;101685.91;5037720;28;768;-60
2021/01/19 09:18:04;;;;;;;;;;;;;;;20.50;27.65;101686.19;5028804;28;1140;-55
2021/01/19 09:20:29;;;;;;;;;;;;;;;20.79;27.04;101684.78;5057118;28;799;-59
2021/01/19 09:23:05;;;;;;;;;;;;;;;20.09;28.15;101688.97;5046963;28;970;-58
2021/01/19 09:25:30;;;;;;;;;;;;;;;19.73;28.90;101675.09;5037068;28;1909;-52
2021/01/19 09:28:01;;;;;;;;;;;;;;;20.03;28.24;101665.22;5037059;28;816;-47
2021/01/19 09:30:27;;;;;;;;;;;;;;;20.68;27.31;101667.41;5037545;28;796;-51
2021/01/19 09:32:53;;;;;;;;;;;;;;;20.83;26.98;101658.22;5036950;28;787;-54
2021/01/19 09:35:18;;;;;;;;;;;;;;;20.24;27.93;101660.50;5019529;28;905;-57
2021/01/19 09:37:44;;;;;;;;;;;;;;;20.03;28.29;101647.84;5036688;28;986;-59
2021/01/19 09:40:09;;;;;;;;;;;;;;;19.65;29.20;101659.06;5037110;28;796;-61
2021/01/19 09:42:41;;;;;;;;;;;;;;;20.44;27.89;101651.41;5036903;28;854;-59
2021/01/19 09:45:07;;;;;;;;;;;;;;;20.82;27.04;101651.06;5036923;28;1969;-55
2021/01/19 09:47:33;;;;;;;;;;;;;;;20.21;28.18;101641.75;5018932;28;880;-63
2021/01/19 09:49:58;;;;;;;;;;;;;;;20.03;28.28;101636.78;5019401;28;1339;-60
2021/01/19 09:52:30;;;;;;;;;;;;;;;19.89;28.70;101637.31;5054388;28;832;-63
2021/01/19 09:55:08;;;;;;;;;;;;;;;20.64;27.48;101638.66;5056751;28;723;-56
2021/01/19 09:57:34;;;;;;;;;;;;;;;20.84;26.99;101637.78;5055366;28;845;-55
2021/01/19 09:59:59;;;;;;;;;;;;;;;20.23;27.97;101633.19;5056225;28;852;-55
2021/01/19 10:02:28;;;;;;;;;;;;;;;19.85;28.57;101635.41;5058517;28;992;-53
2021/01/19 10:05:03;;;;;;;;;;;;;;;20.04;28.59;101631.00;5066090;28;1905;-52
2021/01/19 10:07:29;;;;;;;;;;;;;;;20.71;27.61;101622.63;5066165;28;1280;-55
2021/01/19 10:09:54;;;;;;;;;;;;;;;20.79;27.31;101615.69;5065916;28;1201;-58
2021/01/19 10:12:19;;;;;;;;;;;;;;;20.16;28.07;101617.72;5047967;28;1349;-54
2021/01/19 10:14:46;;;;;;;;;;;;;;;19.79;28.71;101613.31;5064645;28;1284;-55
2021/01/19 10:17:11;;;;;;;;;;;;;;;19.52;29.07;101612.69;5065299;28;1284;-59
2021/01/19 10:19:37;;;;;;;;;;;;;;;20.38;27.80;101605.53;5065529;28;1204;-60
2021/01/19 10:22:06;;;;;;;;;;;;;;;20.91;27.35;101612.59;5053119;28;1068;-51
2021/01/19 10:24:31;;;;;;;;;;;;;;;20.42;27.68;101603.06;5035944;28;1913;-53
2021/01/19 10:27:03;;;;;;;;;;;;;;;20.11;28.26;101600.34;5048720;28;832;-51
2021/01/19 10:29:29;;;;;;;;;;;;;;;19.55;29.16;101606.66;5056387;28;771;-56
2021/01/19 10:31:57;;;;;;;;;;;;;;;20.15;28.48;101598.69;5037428;28;815;-57
2021/01/19 10:34:23;;;;;;;;;;;;;;;20.82;27.25;101601.31;5056117;28;743;-51
2021/01/19 10:36:52;;;;;;;;;;;;;;;21.10;26.77;101591.50;5036734;28;959;-59
2021/01/19 10:39:17;;;;;;;;;;;;;;;20.43;27.70;101583.44;5035865;28;816;-58
2021/01/19 10:41:43;;;;;;;;;;;;;;;20.18;28.15;101582.38;5036089;28;796;-54
2021/01/19 10:44:10;;;;;;;;;;;;;;;19.66;28.81;101583.47;5036195;28;840;-57
2021/01/19 10:46:36;;;;;;;;;;;;;;;20.07;28.30;101569.69;5035604;28;1906;-60
2021/01/19 10:49:21;;;;;;;;;;;;;;;20.68;27.46;101567.94;5035995;28;867;-59
2021/01/19 10:51:51;;;;;;;;;;;;;;;20.45;27.70;101559.09;5051896;28;1230;-64
2021/01/19 10:54:17;;;;;;;;;;;;;;;20.26;27.95;101563.56;5035846;28;799;-59
2021/01/19 10:56:46;;;;;;;;;;;;;;;20.10;28.25;101560.03;5036008;28;756;-53
2021/01/19 10:59:12;;;;;;;;;;;;;;;19.64;29.02;101556.16;5036007;28;819;-59
2021/01/19 11:01:37;;;;;;;;;;;;;;;20.34;27.86;101547.28;5035474;28;764;-53
2021/01/19 11:04:03;;;;;;;;;;;;;;;20.95;26.99;101545.41;5036088;28;768;-55
2021/01/19 11:06:29;;;;;;;;;;;;;;;20.66;27.31;101540.53;5035692;28;2241;-56
2021/01/19 11:08:55;;;;;;;;;;;;;;;20.48;27.70;101547.53;5035371;28;951;-58
2021/01/19 11:11:20;;;;;;;;;;;;;;;20.14;28.19;101530.75;5035980;28;891;-58
2021/01/19 11:13:46;;;;;;;;;;;;;;;19.60;29.18;101526.63;5035691;28;864;-59
2021/01/19 11:16:11;;;;;;;;;;;;;;;20.36;27.77;101535.94;5035368;28;883;-59
2021/01/19 11:18:37;;;;;;;;;;;;;;;20.84;27.15;101539.09;5050219;28;1227;-54
2021/01/19 11:21:03;;;;;;;;;;;;;;;21.04;26.75;101531.78;5055672;28;819;-56
2021/01/19 11:23:29;;;;;;;;;;;;;;;20.49;27.69;101534.53;5038625;28;1129;-58
2021/01/19 11:25:54;;;;;;;;;;;;;;;20.16;28.29;101523.84;5035577;28;2061;-60
2021/01/19 11:28:19;;;;;;;;;;;;;;;19.50;29.20;101519.19;5035627;28;795;-56
2021/01/19 11:30:45;;;;;;;;;;;;;;;20.20;28.12;101515.81;5035649;28;807;-51
2021/01/19 11:33:10;;;;;;;;;;;;;;;20.84;27.18;101508.69;5035665;28;744;-57
2021/01/19 11:35:36;;;;;;;;;;;;;;;20.36;27.76;101519.38;5035742;28;796;-57
2021/01/19 11:38:02;;;;;;;;;;;;;;;20.31;28.13;101508.34;5046379;28;1146;-56
2021/01/19 11:40:28;;;;;;;;;;;;;;;19.67;29.02;101510.66;5055355;28;792;-58
2021/01/19 11:42:53;;;;;;;;;;;;;;;20.09;28.42;101512.28;5057845;28;800;-58
2021/01/19 11:45:18;;;;;;;;;;;;;;;20.76;27.46;101508.47;5059157;28;1906;-63
2021/01/19 11:47:44;;;;;;;;;;;;;;;20.61;27.63;101517.63;5058871;28;763;-69
2021/01/19 11:50:10;;;;;;;;;;;;;;;20.34;27.75;101510.53;5058855;28;819;-62
2021/01/19 11:52:35;;;;;;;;;;;;;;;19.94;28.33;101506.78;5051304;28;971;-65
2021/01/19 11:55:00;;;;;;;;;;;;;;;20.01;28.48;101510.09;5038884;28;863;-60
2021/01/19 11:57:26;;;;;;;;;;;;;;;20.55;27.44;101502.16;5038702;28;852;-55
2021/01/19 11:59:51;;;;;;;;;;;;;;;20.90;26.94;101498.44;5039187;28;875;-57
2021/01/19 12:02:17;;;;;;;;;;;;;;;20.36;27.73;101500.03;5038741;28;863;-59
2021/01/19 12:04:42;;;;;;;;;;;;;;;20.21;28.01;101500.09;5038597;28;1974;-59
2021/01/19 12:07:08;;;;;;;;;;;;;;;19.78;28.56;101484.69;5038799;28;983;-62
2021/01/19 12:09:33;;;;;;;;;;;;;;;20.49;27.56;101495.84;5038573;28;823;-60
2021/01/19 12:11:58;;;;;;;;;;;;;;;21.04;26.93;101495.84;5038584;28;804;-57
2021/01/19 12:14:24;;;;;;;;;;;;;;;20.52;27.59;101490.59;5038760;28;792;-64
2021/01/19 12:16:53;;;;;;;;;;;;;;;20.37;27.86;101490.66;5038601;28;800;-61
2021/01/19 12:19:18;;;;;;;;;;;;;;;19.69;29.00;101497.41;5058430;28;812;-55
2021/01/19 12:21:47;;;;;;;;;;;;;;;20.04;28.47;101498.47;5057845;28;971;-59
2021/01/19 12:24:13;;;;;;;;;;;;;;;20.70;27.22;101493.03;5038269;28;1120;-62
2021/01/19 12:26:38;;;;;;;;;;;;;;;21.12;26.67;101478.66;5038186;28;1918;-60
2021/01/19 12:29:04;;;;;;;;;;;;;;;20.54;27.36;101478.41;5038383;28;748;-57
2021/01/19 12:31:29;;;;;;;;;;;;;;;20.40;27.50;101484.56;5038331;28;756;-57
2021/01/19 12:33:55;;;;;;;;;;;;;;;19.74;28.59;101493.78;5038345;28;772;-66
2021/01/19 12:36:21;;;;;;;;;;;;;;;19.97;28.58;101481.38;5038262;28;843;-65
2021/01/19 12:38:46;;;;;;;;;;;;;;;20.72;27.47;101491.63;5037521;28;1111;-58
2021/01/19 12:41:13;;;;;;;;;;;;;;;21.16;26.63;101484.44;5038273;28;783;-58
2021/01/19 12:43:39;;;;;;;;;;;;;;;20.45;27.48;101486.47;5038215;28;836;-59
2021/01/19 12:46:04;;;;;;;;;;;;;;;20.25;28.10;101484.63;5037793;28;1914;-60
2021/01/19 12:48:30;;;;;;;;;;;;;;;19.72;28.72;101488.56;5046487;28;1186;-61
2021/01/19 12:50:55;;;;;;;;;;;;;;;20.16;28.18;101487.97;5063585;28;1209;-60
2021/01/19 12:53:20;;;;;;;;;;;;;;;20.85;26.97;101485.47;5066826;28;1099;-60
2021/01/19 12:55:46;;;;;;;;;;;;;;;20.56;27.34;101492.78;5077842;28;775;-61
2021/01/19 12:58:11;;;;;;;;;;;;;;;20.41;27.57;101483.47;5077868;28;811;-62